sensor_id;sensor_type;location;lat;lon;timestamp;pressure;altitude;pressure_sealevel;temperature;humidity
14343;BME280;7255;53.596;9.960;2023-03-13T00:02:11;99944.19;;;7.03;nan
14343;BME280;7255;53.596;9.960;2023-03-13T00:04:37;99945.84;;;7.04;nan
14343;BME280;7255;53.596;9.960;2023-03-13T00:07:04;99943.75;;;7.06;nan
14343;BME280;7255;53.596;9.960;2023-03-13T00:09:32;99935.91;;;7.11;nan
14343;BME280;7255;53.596;9.960;2023-03-13T00:11:58;99936.66;;;7.18;nan
14343;BME280;7255;53.596;9.960;2023-03-13T00:14:25;99929.66;;;7.17;nan
14343;BME280;7255;53.596;9.960;2023-03-13T00:16:51;99917.78;;;7.13;nan
14343;BME280;7255;53.596;9.960;2023-03-13T00:19:17;99924.31;;;7.17;nan
14343;BME280;7255;53.596;9.960;2023-03-13T00:21:44;99900.97;;;7.12;nan
14343;BME280;7255;53.596;9.960;2023-03-13T00:24:10;99908.34;;;7.10;nan
14343;BME280;7255;53.596;9.960;2023-03-13T00:26:38;99907.53;;;7.10;nan
14343;BME280;7255;53.596;9.960;2023-03-13T00:29:05;99889.59;;;6.99;nan
14343;BME280;7255;53.596;9.960;2023-03-13T00:31:31;99898.12;;;7.07;nan
14343;BME280;7255;53.596;9.960;2023-03-13T00:33:59;99896.47;;;7.06;nan
14343;BME280;7255;53.596;9.960;2023-03-13T00:36:28;99899.75;;;7.08;nan
14343;BME280;7255;53.596;9.960;2023-03-13T00:38:55;99895.63;;;7.12;nan
14343;BME280;7255;53.596;9.960;2023-03-13T00:41:23;99891.91;;;7.13;nan
14343;BME280;7255;53.596;9.960;2023-03-13T00:43:51;99879.50;;;7.19;nan
14343;BME280;7255;53.596;9.960;2023-03-13T00:46:19;99867.56;;;7.22;nan
14343;BME280;7255;53.596;9.960;2023-03-13T00:48:47;99870.00;;;7.23;nan
14343;BME280;7255;53.596;9.960;2023-03-13T00:51:15;99875.28;;;7.30;nan
14343;BME280;7255;53.596;9.960;2023-03-13T00:53:42;99863.78;;;7.29;nan
14343;BME280;7255;53.596;9.960;2023-03-13T00:56:10;99861.25;;;7.35;nan
14343;BME280;7255;53.596;9.960;2023-03-13T00:58:39;99855.00;;;7.41;nan
14343;BME280;7255;53.596;9.960;2023-03-13T01:01:08;99850.38;;;7.48;nan
14343;BME280;7255;53.596;9.960;2023-03-13T01:03:36;99851.19;;;7.48;nan
14343;BME280;7255;53.596;9.960;2023-03-13T01:06:05;99860.25;;;7.47;nan
14343;BME280;7255;53.596;9.960;2023-03-13T01:08:32;99848.66;;;7.54;nan
14343;BME280;7255;53.596;9.960;2023-03-13T01:10:59;99849.47;;;7.54;nan
14343;BME280;7255;53.596;9.960;2023-03-13T01:13:26;99843.31;;;7.54;nan
14343;BME280;7255;53.596;9.960;2023-03-13T01:15:52;99846.03;;;7.65;nan
14343;BME280;7255;53.596;9.960;2023-03-13T01:18:20;99839.06;;;7.64;nan
14343;BME280;7255;53.596;9.960;2023-03-13T01:20:46;99836.97;;;7.66;nan
14343;BME280;7255;53.596;9.960;2023-03-13T01:23:13;99822.56;;;7.67;nan
14343;BME280;7255;53.596;9.960;2023-03-13T01:25:39;99831.19;;;7.69;nan
14343;BME280;7255;53.596;9.960;2023-03-13T01:28:06;99818.41;;;7.71;nan
14343;BME280;7255;53.596;9.960;2023-03-13T01:30:32;99808.06;;;7.75;nan
14343;BME280;7255;53.596;9.960;2023-03-13T01:32:58;99801.06;;;7.74;nan
14343;BME280;7255;53.596;9.960;2023-03-13T01:35:27;99800.25;;;7.74;nan
14343;BME280;7255;53.596;9.960;2023-03-13T01:37:54;99790.75;;;7.78;nan
14343;BME280;7255;53.596;9.960;2023-03-13T01:40:20;99787.03;;;7.79;nan
14343;BME280;7255;53.596;9.960;2023-03-13T01:42:51;99779.94;;;7.84;nan
14343;BME280;7255;53.596;9.960;2023-03-13T01:45:53;99773.31;;;7.87;nan
14343;BME280;7255;53.596;9.960;2023-03-13T01:48:24;99773.31;;;7.87;nan
14343;BME280;7255;53.596;9.960;2023-03-13T01:50:54;99756.91;;;7.83;nan
14343;BME280;7255;53.596;9.960;2023-03-13T01:53:20;99740.88;;;7.83;nan
14343;BME280;7255;53.596;9.960;2023-03-13T01:55:47;99737.59;;;7.81;nan
14343;BME280;7255;53.596;9.960;2023-03-13T01:58:14;99735.88;;;7.87;nan
14343;BME280;7255;53.596;9.960;2023-03-13T02:00:42;99730.16;;;7.83;nan
14343;BME280;7255;53.596;9.960;2023-03-13T02:03:11;99719.97;;;7.80;nan
14343;BME280;7255;53.596;9.960;2023-03-13T02:05:40;99715.50;;;7.74;nan
14343;BME280;7255;53.596;9.960;2023-03-13T02:08:13;99714.25;;;7.77;nan
14343;BME280;7255;53.596;9.960;2023-03-13T02:10:49;99707.25;;;7.76;nan
14343;BME280;7255;53.596;9.960;2023-03-13T02:13:16;99699.81;;;7.78;nan
14343;BME280;7255;53.596;9.960;2023-03-13T02:15:43;99689.56;;;7.75;nan
14343;BME280;7255;53.596;9.960;2023-03-13T02:18:10;99684.22;;;7.75;nan
14343;BME280;7255;53.596;9.960;2023-03-13T02:20:37;99688.31;;;7.77;nan
14343;BME280;7255;53.596;9.960;2023-03-13T02:23:13;99685.41;;;7.79;nan
14343;BME280;7255;53.596;9.960;2023-03-13T02:25:46;99674.72;;;7.79;nan
14343;BME280;7255;53.596;9.960;2023-03-13T02:28:16;99661.59;;;7.77;nan
14343;BME280;7255;53.596;9.960;2023-03-13T02:30:44;99666.47;;;7.80;nan
14343;BME280;7255;53.596;9.960;2023-03-13T02:33:11;99670.53;;;7.83;nan
14343;BME280;7255;53.596;9.960;2023-03-13T02:35:38;99656.09;;;7.84;nan
14343;BME280;7255;53.596;9.960;2023-03-13T02:38:07;99653.69;;;7.82;nan
14343;BME280;7255;53.596;9.960;2023-03-13T02:40:37;99646.94;;;7.92;nan
14343;BME280;7255;53.596;9.960;2023-03-13T02:43:10;99638.44;;;7.83;nan
14343;BME280;7255;53.596;9.960;2023-03-13T02:45:37;99635.66;;;7.78;nan
14343;BME280;7255;53.596;9.960;2023-03-13T02:48:04;99628.19;;;7.80;nan
14343;BME280;7255;53.596;9.960;2023-03-13T02:50:31;99637.16;;;7.85;nan
14343;BME280;7255;53.596;9.960;2023-03-13T02:53:00;99626.94;;;7.82;nan
14343;BME280;7255;53.596;9.960;2023-03-13T02:55:30;99624.50;;;7.81;nan
14343;BME280;7255;53.596;9.960;2023-03-13T02:57:58;99621.94;;;7.86;nan
14343;BME280;7255;53.596;9.960;2023-03-13T03:00:26;99607.97;;;7.84;nan
14343;BME280;7255;53.596;9.960;2023-03-13T03:02:52;99601.00;;;7.83;nan
14343;BME280;7255;53.596;9.960;2023-03-13T03:05:20;99599.38;;;7.82;nan
14343;BME280;7255;53.596;9.960;2023-03-13T03:07:47;99594.97;;;7.76;nan
14343;BME280;7255;53.596;9.960;2023-03-13T03:10:15;99585.41;;;7.80;nan
14343;BME280;7255;53.596;9.960;2023-03-13T03:12:41;99582.41;;;7.88;nan
14343;BME280;7255;53.596;9.960;2023-03-13T03:15:08;99579.97;;;7.86;nan
14343;BME280;7255;53.596;9.960;2023-03-13T03:17:36;99584.97;;;7.83;nan
14343;BME280;7255;53.596;9.960;2023-03-13T03:20:03;99577.50;;;7.85;nan
14343;BME280;7255;53.596;9.960;2023-03-13T03:22:31;99568.81;;;7.89;nan
14343;BME280;7255;53.596;9.960;2023-03-13T03:24:58;99572.84;;;7.92;nan
14343;BME280;7255;53.596;9.960;2023-03-13T03:27:25;99567.50;;;7.92;nan
14343;BME280;7255;53.596;9.960;2023-03-13T03:29:51;99563.44;;;7.89;nan
14343;BME280;7255;53.596;9.960;2023-03-13T03:32:17;99549.81;;;7.91;nan
14343;BME280;7255;53.596;9.960;2023-03-13T03:34:46;99546.13;;;7.92;nan
14343;BME280;7255;53.596;9.960;2023-03-13T03:37:12;99544.00;;;7.94;nan
14343;BME280;7255;53.596;9.960;2023-03-13T03:39:39;99534.13;;;7.95;nan
14343;BME280;7255;53.596;9.960;2023-03-13T03:42:05;99533.78;;;7.91;nan
14343;BME280;7255;53.596;9.960;2023-03-13T03:44:33;99529.09;;;7.98;nan
14343;BME280;7255;53.596;9.960;2023-03-13T03:47:00;99520.50;;;7.96;nan
14343;BME280;7255;53.596;9.960;2023-03-13T03:49:26;99521.31;;;7.97;nan
14343;BME280;7255;53.596;9.960;2023-03-13T03:51:54;99504.81;;;8.00;nan
14343;BME280;7255;53.596;9.960;2023-03-13T03:54:20;99504.00;;;7.99;nan
14343;BME280;7255;53.596;9.960;2023-03-13T03:56:47;99506.09;;;7.97;nan
14343;BME280;7255;53.596;9.960;2023-03-13T03:59:13;99498.31;;;7.96;nan
14343;BME280;7255;53.596;9.960;2023-03-13T04:01:39;99492.16;;;7.95;nan
14343;BME280;7255;53.596;9.960;2023-03-13T04:04:06;99486.81;;;7.95;nan
14343;BME280;7255;53.596;9.960;2023-03-13T04:06:32;99474.00;;;7.97;nan
14343;BME280;7255;53.596;9.960;2023-03-13T04:09:00;99480.03;;;8.04;nan
14343;BME280;7255;53.596;9.960;2023-03-13T04:11:26;99476.28;;;8.05;nan
14343;BME280;7255;53.596;9.960;2023-03-13T04:13:52;99475.03;;;8.08;nan
14343;BME280;7255;53.596;9.960;2023-03-13T04:16:18;99463.03;;;8.10;nan
14343;BME280;7255;53.596;9.960;2023-03-13T04:18:45;99454.88;;;8.05;nan
14343;BME280;7255;53.596;9.960;2023-03-13T04:21:11;99440.28;;;7.96;nan
14343;BME280;7255;53.596;9.960;2023-03-13T04:23:38;99437.03;;;7.94;nan
14343;BME280;7255;53.596;9.960;2023-03-13T04:26:05;99432.81;;;7.98;nan
14343;BME280;7255;53.596;9.960;2023-03-13T04:28:32;99423.75;;;7.99;nan
14343;BME280;7255;53.596;9.960;2023-03-13T04:30:58;99416.31;;;8.01;nan
14343;BME280;7255;53.596;9.960;2023-03-13T04:33:25;99402.38;;;7.99;nan
14343;BME280;7255;53.596;9.960;2023-03-13T04:35:52;99394.09;;;8.01;nan
14343;BME280;7255;53.596;9.960;2023-03-13T04:38:18;99386.78;;;7.96;nan
14343;BME280;7255;53.596;9.960;2023-03-13T04:40:44;99384.69;;;7.98;nan
14343;BME280;7255;53.596;9.960;2023-03-13T04:43:13;99374.81;;;7.99;nan
14343;BME280;7255;53.596;9.960;2023-03-13T04:45:39;99353.87;;;7.96;nan
14343;BME280;7255;53.596;9.960;2023-03-13T04:48:06;99355.66;;;7.90;nan
14343;BME280;7255;53.596;9.960;2023-03-13T04:50:32;99350.66;;;7.94;nan
14343;BME280;7255;53.596;9.960;2023-03-13T04:52:58;99337.37;;;7.99;nan
14343;BME280;7255;53.596;9.960;2023-03-13T04:55:25;99342.38;;;7.95;nan
14343;BME280;7255;53.596;9.960;2023-03-13T04:57:51;99331.69;;;7.95;nan
14343;BME280;7255;53.596;9.960;2023-03-13T05:00:19;99322.78;;;7.89;nan
14343;BME280;7255;53.596;9.960;2023-03-13T05:02:46;99328.75;;;7.97;nan
14343;BME280;7255;53.596;9.960;2023-03-13T05:05:12;99292.28;;;7.90;nan
14343;BME280;7255;53.596;9.960;2023-03-13T05:07:39;99293.91;;;7.92;nan
14343;BME280;7255;53.596;9.960;2023-03-13T05:10:05;99282.91;;;7.88;nan
14343;BME280;7255;53.596;9.960;2023-03-13T05:12:32;99270.09;;;7.90;nan
14343;BME280;7255;53.596;9.960;2023-03-13T05:14:58;99257.28;;;7.92;nan
14343;BME280;7255;53.596;9.960;2023-03-13T05:17:26;99249.34;;;7.97;nan
14343;BME280;7255;53.596;9.960;2023-03-13T05:19:52;99249.81;;;7.94;nan
14343;BME280;7255;53.596;9.960;2023-03-13T05:22:18;99233.78;;;7.94;nan
14343;BME280;7255;53.596;9.960;2023-03-13T05:24:44;99238.00;;;7.90;nan
14343;BME280;7255;53.596;9.960;2023-03-13T05:27:11;99234.25;;;7.91;nan
14343;BME280;7255;53.596;9.960;2023-03-13T05:29:38;99230.06;;;7.95;nan
14343;BME280;7255;53.596;9.960;2023-03-13T05:32:04;99235.09;;;7.92;nan
14343;BME280;7255;53.596;9.960;2023-03-13T05:34:32;99228.09;;;7.90;nan
14343;BME280;7255;53.596;9.960;2023-03-13T05:36:58;99230.06;;;7.95;nan
14343;BME280;7255;53.596;9.960;2023-03-13T05:39:25;99225.66;;;7.89;nan
14343;BME280;7255;53.596;9.960;2023-03-13T05:41:51;99228.44;;;7.94;nan
14343;BME280;7255;53.596;9.960;2023-03-13T05:44:17;99218.28;;;7.96;nan
14343;BME280;7255;53.596;9.960;2023-03-13T05:46:44;99206.25;;;7.94;nan
14343;BME280;7255;53.596;9.960;2023-03-13T05:49:10;99206.56;;;7.97;nan
14343;BME280;7255;53.596;9.960;2023-03-13T05:51:38;99197.16;;;7.95;nan
14343;BME280;7255;53.596;9.960;2023-03-13T05:54:04;99196.19;;;8.01;nan
14343;BME280;7255;53.596;9.960;2023-03-13T05:56:30;99191.16;;;8.04;nan
14343;BME280;7255;53.596;9.960;2023-03-13T05:58:57;99173.78;;;8.07;nan
14343;BME280;7255;53.596;9.960;2023-03-13T06:01:23;99184.97;;;8.04;nan
14343;BME280;7255;53.596;9.960;2023-03-13T06:03:50;99169.75;;;8.04;nan
14343;BME280;7255;53.596;9.960;2023-03-13T06:06:16;99145.94;;;8.03;nan
14343;BME280;7255;53.596;9.960;2023-03-13T06:08:44;99164.72;;;8.08;nan
14343;BME280;7255;53.596;9.960;2023-03-13T06:11:10;99173.47;;;8.03;nan
14343;BME280;7255;53.596;9.960;2023-03-13T06:13:36;99150.28;;;8.09;nan
14343;BME280;7255;53.596;9.960;2023-03-13T06:16:03;99162.09;;;8.13;nan
14343;BME280;7255;53.596;9.960;2023-03-13T06:18:30;99157.59;;;8.14;nan
14343;BME280;7255;53.596;9.960;2023-03-13T06:20:57;99148.00;;;8.18;nan
14343;BME280;7255;53.596;9.960;2023-03-13T06:23:24;99140.84;;;8.23;nan
14343;BME280;7255;53.596;9.960;2023-03-13T06:25:52;99158.00;;;8.27;nan
14343;BME280;7255;53.596;9.960;2023-03-13T06:28:19;99159.97;;;8.32;nan
14343;BME280;7255;53.596;9.960;2023-03-13T06:30:45;99152.81;;;8.38;nan
14343;BME280;7255;53.596;9.960;2023-03-13T06:33:12;99130.06;;;8.40;nan
14343;BME280;7255;53.596;9.960;2023-03-13T06:35:38;99141.97;;;8.44;nan
14343;BME280;7255;53.596;9.960;2023-03-13T06:38:05;99128.62;;;8.50;nan
14343;BME280;7255;53.596;9.960;2023-03-13T06:40:31;99133.47;;;8.53;nan
14343;BME280;7255;53.596;9.960;2023-03-13T06:42:59;99115.59;;;8.58;nan
14343;BME280;7255;53.596;9.960;2023-03-13T06:45:25;99118.34;;;8.63;nan
14343;BME280;7255;53.596;9.960;2023-03-13T06:47:51;99124.50;;;8.64;nan
14343;BME280;7255;53.596;9.960;2023-03-13T06:50:18;99107.75;;;8.74;nan
14343;BME280;7255;53.596;9.960;2023-03-13T06:52:45;99107.75;;;8.74;nan
14343;BME280;7255;53.596;9.960;2023-03-13T06:55:12;99097.84;;;8.74;nan
14343;BME280;7255;53.596;9.960;2023-03-13T06:57:39;99087.75;;;8.81;nan
14343;BME280;7255;53.596;9.960;2023-03-13T07:00:08;99082.16;;;8.88;nan
14343;BME280;7255;53.596;9.960;2023-03-13T07:02:35;99065.91;;;8.95;nan
14343;BME280;7255;53.596;9.960;2023-03-13T07:05:03;99074.78;;;9.00;nan
14343;BME280;7255;53.596;9.960;2023-03-13T07:07:30;99084.22;;;9.03;nan
14343;BME280;7255;53.596;9.960;2023-03-13T07:09:57;99087.94;;;9.02;nan
14343;BME280;7255;53.596;9.960;2023-03-13T07:12:23;99090.06;;;9.00;nan
14343;BME280;7255;53.596;9.960;2023-03-13T07:14:50;99076.72;;;9.05;nan
14343;BME280;7255;53.596;9.960;2023-03-13T07:17:17;99068.50;;;9.17;nan
14343;BME280;7255;53.596;9.960;2023-03-13T07:19:43;99063.94;;;9.17;nan
14343;BME280;7255;53.596;9.960;2023-03-13T07:22:10;99057.59;;;9.23;nan
14343;BME280;7255;53.596;9.960;2023-03-13T07:24:36;99061.81;;;9.19;nan
14343;BME280;7255;53.596;9.960;2023-03-13T07:27:03;99064.53;;;9.24;nan
14343;BME280;7255;53.596;9.960;2023-03-13T07:29:29;99049.84;;;9.32;nan
14343;BME280;7255;53.596;9.960;2023-03-13T07:31:55;99038.63;;;9.35;nan
14343;BME280;7255;53.596;9.960;2023-03-13T07:34:23;99046.13;;;9.33;nan
14343;BME280;7255;53.596;9.960;2023-03-13T07:36:50;99046.91;;;9.34;nan
14343;BME280;7255;53.596;9.960;2023-03-13T07:39:16;99057.44;;;9.40;nan
14343;BME280;7255;53.596;9.960;2023-03-13T07:41:42;99046.41;;;9.37;nan
14343;BME280;7255;53.596;9.960;2023-03-13T07:44:09;99055.00;;;9.39;nan
14343;BME280;7255;53.596;9.960;2023-03-13T07:46:36;99036.56;;;9.48;nan
14343;BME280;7255;53.596;9.960;2023-03-13T07:49:02;99049.19;;;9.52;nan
14343;BME280;7255;53.596;9.960;2023-03-13T07:51:30;99031.00;;;9.54;nan
14343;BME280;7255;53.596;9.960;2023-03-13T07:53:56;99036.91;;;9.61;nan
14343;BME280;7255;53.596;9.960;2023-03-13T07:56:23;99031.31;;;9.68;nan
14343;BME280;7255;53.596;9.960;2023-03-13T07:58:50;99029.47;;;9.74;nan
14343;BME280;7255;53.596;9.960;2023-03-13T08:01:18;99035.63;;;9.74;nan
14343;BME280;7255;53.596;9.960;2023-03-13T08:03:45;99027.91;;;9.83;nan
14343;BME280;7255;53.596;9.960;2023-03-13T08:06:14;99037.62;;;9.89;nan
14343;BME280;7255;53.596;9.960;2023-03-13T08:08:42;99027.41;;;9.86;nan
14343;BME280;7255;53.596;9.960;2023-03-13T08:11:11;99020.69;;;9.89;nan
14343;BME280;7255;53.596;9.960;2023-03-13T08:13:37;99020.97;;;9.92;nan
14343;BME280;7255;53.596;9.960;2023-03-13T08:16:07;99010.81;;;9.99;nan
14343;BME280;7255;53.596;9.960;2023-03-13T08:18:34;99017.25;;;10.03;nan
14343;BME280;7255;53.596;9.960;2023-03-13T08:21:02;99025.63;;;10.12;nan
14343;BME280;7255;53.596;9.960;2023-03-13T08:23:29;99008.47;;;10.18;nan
14343;BME280;7255;53.596;9.960;2023-03-13T08:26:00;99019.22;;;10.18;nan
14343;BME280;7255;53.596;9.960;2023-03-13T08:28:27;99005.00;;;10.23;nan
14343;BME280;7255;53.596;9.960;2023-03-13T08:30:53;98995.66;;;10.31;nan
14343;BME280;7255;53.596;9.960;2023-03-13T08:33:19;99012.06;;;10.39;nan
14343;BME280;7255;53.596;9.960;2023-03-13T08:35:46;99007.72;;;10.38;nan
14343;BME280;7255;53.596;9.960;2023-03-13T08:38:12;99003.72;;;10.36;nan
14343;BME280;7255;53.596;9.960;2023-03-13T08:40:38;99023.88;;;10.49;nan
14343;BME280;7255;53.596;9.960;2023-03-13T08:43:06;99008.84;;;10.53;nan
14343;BME280;7255;53.596;9.960;2023-03-13T08:45:32;98999.72;;;10.54;nan
14343;BME280;7255;53.596;9.960;2023-03-13T08:47:59;98999.22;;;10.57;nan
14343;BME280;7255;53.596;9.960;2023-03-13T08:50:25;98984.97;;;10.62;nan
14343;BME280;7255;53.596;9.960;2023-03-13T08:52:52;99009.66;;;10.64;nan
14343;BME280;7255;53.596;9.960;2023-03-13T08:55:18;99007.53;;;10.76;nan
14343;BME280;7255;53.596;9.960;2023-03-13T08:57:44;98997.59;;;10.76;nan
14343;BME280;7255;53.596;9.960;2023-03-13T09:00:13;98991.44;;;10.76;nan
14343;BME280;7255;53.596;9.960;2023-03-13T09:02:40;99000.03;;;10.88;nan
14343;BME280;7255;53.596;9.960;2023-03-13T09:05:07;98975.06;;;10.83;nan
14343;BME280;7255;53.596;9.960;2023-03-13T09:07:33;98983.38;;;10.81;nan
14343;BME280;7255;53.596;9.960;2023-03-13T09:09:59;98988.75;;;10.86;nan
14343;BME280;7255;53.596;9.960;2023-03-13T09:12:26;98987.94;;;10.91;nan
14343;BME280;7255;53.596;9.960;2023-03-13T09:14:52;98982.81;;;10.94;nan
14343;BME280;7255;53.596;9.960;2023-03-13T09:17:20;98972.34;;;11.08;nan
14343;BME280;7255;53.596;9.960;2023-03-13T09:19:46;98979.87;;;11.01;nan
14343;BME280;7255;53.596;9.960;2023-03-13T09:22:13;98981.47;;;11.07;nan
14343;BME280;7255;53.596;9.960;2023-03-13T09:24:40;98969.09;;;11.16;nan
14343;BME280;7255;53.596;9.960;2023-03-13T09:27:07;98980.91;;;11.21;nan
14343;BME280;7255;53.596;9.960;2023-03-13T09:29:33;98977.44;;;11.15;nan
14343;BME280;7255;53.596;9.960;2023-03-13T09:32:04;98973.91;;;11.30;nan
14343;BME280;7255;53.596;9.960;2023-03-13T09:34:32;98968.00;;;11.33;nan
14343;BME280;7255;53.596;9.960;2023-03-13T09:36:58;98976.06;;;11.38;nan
14343;BME280;7255;53.596;9.960;2023-03-13T09:39:25;98978.75;;;11.43;nan
14343;BME280;7255;53.596;9.960;2023-03-13T09:41:53;98986.25;;;11.51;nan
14343;BME280;7255;53.596;9.960;2023-03-13T09:44:24;98974.69;;;11.51;nan
14343;BME280;7255;53.596;9.960;2023-03-13T09:46:59;98980.59;;;11.58;nan
14343;BME280;7255;53.596;9.960;2023-03-13T09:49:29;98983.53;;;11.56;nan
14343;BME280;7255;53.596;9.960;2023-03-13T09:52:09;98982.75;;;11.56;nan
14343;BME280;7255;53.596;9.960;2023-03-13T09:54:42;98987.56;;;11.59;nan
14343;BME280;7255;53.596;9.960;2023-03-13T09:57:15;98989.19;;;11.60;nan
14343;BME280;7255;53.596;9.960;2023-03-13T09:59:47;98985.13;;;11.68;nan
14343;BME280;7255;53.596;9.960;2023-03-13T10:02:22;98996.41;;;11.65;nan
14343;BME280;7255;53.596;9.960;2023-03-13T10:04:52;98989.97;;;11.61;nan
14343;BME280;7255;53.596;9.960;2023-03-13T10:07:22;98984.84;;;11.64;nan
14343;BME280;7255;53.596;9.960;2023-03-13T10:09:48;98993.72;;;11.70;nan
14343;BME280;7255;53.596;9.960;2023-03-13T10:12:18;99005.25;;;11.81;nan
14343;BME280;7255;53.596;9.960;2023-03-13T10:14:52;98981.81;;;11.86;nan
14343;BME280;7255;53.596;9.960;2023-03-13T10:17:28;99000.16;;;11.74;nan
14343;BME280;7255;53.596;9.960;2023-03-13T10:19:57;98989.38;;;11.74;nan
14343;BME280;7255;53.596;9.960;2023-03-13T10:22:29;99010.87;;;11.84;nan
14343;BME280;7255;53.596;9.960;2023-03-13T10:24:58;99010.34;;;11.87;nan
14343;BME280;7255;53.596;9.960;2023-03-13T10:27:26;99008.72;;;11.86;nan
14343;BME280;7255;53.596;9.960;2023-03-13T10:29:52;99019.50;;;11.86;nan
14343;BME280;7255;53.596;9.960;2023-03-13T10:32:19;99020.28;;;11.97;nan
14343;BME280;7255;53.596;9.960;2023-03-13T10:34:51;99015.69;;;12.08;nan
14343;BME280;7255;53.596;9.960;2023-03-13T10:37:23;99021.53;;;12.25;nan
14343;BME280;7255;53.596;9.960;2023-03-13T10:39:51;99020.84;;;12.49;nan
14343;BME280;7255;53.596;9.960;2023-03-13T10:42:22;99007.97;;;12.41;nan
14343;BME280;7255;53.596;9.960;2023-03-13T10:44:55;99010.37;;;12.42;nan
14343;BME280;7255;53.596;9.960;2023-03-13T10:47:21;98985.25;;;12.57;nan
14343;BME280;7255;53.596;9.960;2023-03-13T10:49:49;98998.34;;;12.69;nan
14343;BME280;7255;53.596;9.960;2023-03-13T10:52:34;98995.78;;;12.88;nan
14343;BME280;7255;53.596;9.960;2023-03-13T10:55:03;98981.03;;;13.09;nan
14343;BME280;7255;53.596;9.960;2023-03-13T10:57:31;99008.47;;;13.17;nan
14343;BME280;7255;53.596;9.960;2023-03-13T10:59:58;98997.13;;;13.20;nan
14343;BME280;7255;53.596;9.960;2023-03-13T11:02:28;98999.38;;;13.07;nan
14343;BME280;7255;53.596;9.960;2023-03-13T11:04:58;98996.75;;;13.02;nan
14343;BME280;7255;53.596;9.960;2023-03-13T11:07:26;98991.81;;;13.09;nan
14343;BME280;7255;53.596;9.960;2023-03-13T11:09:57;98993.75;;;13.04;nan
14343;BME280;7255;53.596;9.960;2023-03-13T11:12:25;99002.94;;;13.03;nan
14343;BME280;7255;53.596;9.960;2023-03-13T11:14:56;98995.63;;;13.08;nan
14343;BME280;7255;53.596;9.960;2023-03-13T11:17:28;99011.47;;;13.15;nan
14343;BME280;7255;53.596;9.960;2023-03-13T11:20:13;98983.38;;;13.21;nan
14343;BME280;7255;53.596;9.960;2023-03-13T11:22:50;98961.38;;;13.38;nan
14343;BME280;7255;53.596;9.960;2023-03-13T11:25:22;98980.13;;;13.54;nan
14343;BME280;7255;53.596;9.960;2023-03-13T11:28:05;98971.87;;;13.64;nan
14343;BME280;7255;53.596;9.960;2023-03-13T11:30:52;98978.84;;;13.94;nan
14343;BME280;7255;53.596;9.960;2023-03-13T11:33:28;98952.56;;;14.19;nan
14343;BME280;7255;53.596;9.960;2023-03-13T11:36:00;98953.75;;;14.13;nan
14343;BME280;7255;53.596;9.960;2023-03-13T11:38:31;98958.78;;;14.19;nan
14343;BME280;7255;53.596;9.960;2023-03-13T11:41:05;98968.34;;;14.50;nan
14343;BME280;7255;53.596;9.960;2023-03-13T11:44:02;98948.69;;;14.82;nan
14343;BME280;7255;53.596;9.960;2023-03-13T11:46:42;98965.97;;;15.14;nan
14343;BME280;7255;53.596;9.960;2023-03-13T11:49:35;98955.38;;;15.17;nan
14343;BME280;7255;53.596;9.960;2023-03-13T11:52:10;98955.16;;;15.14;nan
14343;BME280;7255;53.596;9.960;2023-03-13T11:54:49;98944.53;;;15.04;nan
14343;BME280;7255;53.596;9.960;2023-03-13T11:57:23;98957.19;;;15.22;nan
14343;BME280;7255;53.596;9.960;2023-03-13T12:00:06;98954.41;;;15.41;nan
14343;BME280;7255;53.596;9.960;2023-03-13T12:02:40;98952.22;;;15.57;nan
14343;BME280;7255;53.596;9.960;2023-03-13T12:05:13;98933.16;;;15.34;nan
14343;BME280;7255;53.596;9.960;2023-03-13T12:07:48;98954.38;;;15.27;nan
14343;BME280;7255;53.596;9.960;2023-03-13T12:10:18;98950.19;;;15.21;nan
14343;BME280;7255;53.596;9.960;2023-03-13T12:12:48;98935.16;;;15.15;nan
14343;BME280;7255;53.596;9.960;2023-03-13T12:15:21;98939.13;;;15.04;nan
14343;BME280;7255;53.596;9.960;2023-03-13T12:17:51;98930.69;;;14.91;nan
14343;BME280;7255;53.596;9.960;2023-03-13T12:20:23;98925.28;;;15.05;nan
14343;BME280;7255;53.596;9.960;2023-03-13T12:22:55;98940.75;;;15.18;nan
14343;BME280;7255;53.596;9.960;2023-03-13T12:25:24;98934.63;;;15.13;nan
14343;BME280;7255;53.596;9.960;2023-03-13T12:27:55;98937.31;;;14.99;nan
14343;BME280;7255;53.596;9.960;2023-03-13T12:30:32;98923.00;;;15.12;nan
14343;BME280;7255;53.596;9.960;2023-03-13T12:33:05;98934.91;;;14.97;nan
14343;BME280;7255;53.596;9.960;2023-03-13T12:35:41;98936.09;;;14.91;nan
14343;BME280;7255;53.596;9.960;2023-03-13T12:38:14;98936.09;;;14.91;nan
14343;BME280;7255;53.596;9.960;2023-03-13T12:40:46;98935.25;;;14.77;nan
14343;BME280;7255;53.596;9.960;2023-03-13T12:43:18;98920.03;;;14.81;nan
14343;BME280;7255;53.596;9.960;2023-03-13T12:46:00;98925.44;;;14.81;nan
14343;BME280;7255;53.596;9.960;2023-03-13T12:48:45;98933.47;;;14.86;nan
14343;BME280;7255;53.596;9.960;2023-03-13T12:51:26;98928.88;;;14.87;nan
14343;BME280;7255;53.596;9.960;2023-03-13T12:54:26;98937.91;;;14.96;nan
14343;BME280;7255;53.596;9.960;2023-03-13T12:57:19;98921.47;;;14.92;nan
14343;BME280;7255;53.596;9.960;2023-03-13T12:59:51;98930.31;;;15.26;nan
14343;BME280;7255;53.596;9.960;2023-03-13T13:02:22;98909.28;;;15.36;nan
14343;BME280;7255;53.596;9.960;2023-03-13T13:04:51;98917.91;;;15.25;nan
14343;BME280;7255;53.596;9.960;2023-03-13T13:07:22;98915.91;;;15.30;nan
14343;BME280;7255;53.596;9.960;2023-03-13T13:10:03;98909.91;;;15.47;nan
14343;BME280;7255;53.596;9.960;2023-03-13T13:12:30;98898.28;;;15.47;nan
14343;BME280;7255;53.596;9.960;2023-03-13T13:15:02;98892.47;;;15.39;nan
14343;BME280;7255;53.596;9.960;2023-03-13T13:17:49;98897.06;;;15.53;nan
14343;BME280;7255;53.596;9.960;2023-03-13T13:20:38;98902.38;;;15.72;nan
14343;BME280;7255;53.596;9.960;2023-03-13T13:23:28;98889.44;;;15.69;nan
14343;BME280;7255;53.596;9.960;2023-03-13T13:32:37;98879.84;;;15.63;nan
14343;BME280;7255;53.596;9.960;2023-03-13T13:35:18;98865.00;;;15.74;nan
14343;BME280;7255;53.596;9.960;2023-03-13T13:37:45;98870.81;;;15.81;nan
14343;BME280;7255;53.596;9.960;2023-03-13T13:40:21;98871.38;;;15.92;nan
14343;BME280;7255;53.596;9.960;2023-03-13T13:42:50;98860.56;;;15.92;nan
14343;BME280;7255;53.596;9.960;2023-03-13T13:45:28;98847.91;;;15.87;nan
14343;BME280;7255;53.596;9.960;2023-03-13T13:51:23;98848.69;;;16.02;nan
14343;BME280;7255;53.596;9.960;2023-03-13T13:53:52;98850.50;;;15.92;nan
14343;BME280;7255;53.596;9.960;2023-03-13T13:56:33;98842.47;;;16.01;nan
14343;BME280;7255;53.596;9.960;2023-03-13T13:59:05;98852.44;;;16.14;nan
14343;BME280;7255;53.596;9.960;2023-03-13T14:01:39;98827.81;;;16.02;nan